sensor_id;sensor_type;location;lat;lon;timestamp;temperature;humidity
12893;DHT22;6514;48.606;9.222;2024-02-16T00:00:46;8.60;99.90
12893;DHT22;6514;48.606;9.222;2024-02-16T00:03:13;8.60;99.90
12893;DHT22;6514;48.606;9.222;2024-02-16T00:05:40;8.60;99.90
12893;DHT22;6514;48.606;9.222;2024-02-16T00:08:08;8.60;99.90
12893;DHT22;6514;48.606;9.222;2024-02-16T00:10:36;8.60;99.90
12893;DHT22;6514;48.606;9.222;2024-02-16T00:13:04;8.60;99.90
12893;DHT22;6514;48.606;9.222;2024-02-16T00:15:31;8.70;99.90
12893;DHT22;6514;48.606;9.222;2024-02-16T00:17:58;8.70;99.90
12893;DHT22;6514;48.606;9.222;2024-02-16T00:20:25;8.60;99.90
12893;DHT22;6514;48.606;9.222;2024-02-16T00:22:52;8.60;99.90
12893;DHT22;6514;48.606;9.222;2024-02-16T00:25:19;8.50;99.90
12893;DHT22;6514;48.606;9.222;2024-02-16T00:27:47;8.50;99.90
12893;DHT22;6514;48.606;9.222;2024-02-16T00:30:15;8.40;99.90
12893;DHT22;6514;48.606;9.222;2024-02-16T00:32:44;8.40;99.90
12893;DHT22;6514;48.606;9.222;2024-02-16T00:35:11;8.30;99.90
12893;DHT22;6514;48.606;9.222;2024-02-16T00:37:38;8.30;99.90
12893;DHT22;6514;48.606;9.222;2024-02-16T00:40:06;8.20;99.90
12893;DHT22;6514;48.606;9.222;2024-02-16T00:42:33;8.20;99.90
12893;DHT22;6514;48.606;9.222;2024-02-16T00:45:01;8.20;99.90
12893;DHT22;6514;48.606;9.222;2024-02-16T00:47:29;8.20;99.90
12893;DHT22;6514;48.606;9.222;2024-02-16T00:49:56;8.20;99.90
12893;DHT22;6514;48.606;9.222;2024-02-16T00:52:23;8.20;99.90
12893;DHT22;6514;48.606;9.222;2024-02-16T00:54:50;8.20;99.90
12893;DHT22;6514;48.606;9.222;2024-02-16T00:57:17;8.20;99.90
12893;DHT22;6514;48.606;9.222;2024-02-16T00:59:44;8.20;99.90
12893;DHT22;6514;48.606;9.222;2024-02-16T01:02:12;8.20;99.90
12893;DHT22;6514;48.606;9.222;2024-02-16T01:04:39;8.20;99.90
12893;DHT22;6514;48.606;9.222;2024-02-16T01:07:06;8.10;99.90
12893;DHT22;6514;48.606;9.222;2024-02-16T01:09:33;8.10;99.90
12893;DHT22;6514;48.606;9.222;2024-02-16T01:12:00;8.10;99.90
12893;DHT22;6514;48.606;9.222;2024-02-16T01:14:26;8.20;99.90
12893;DHT22;6514;48.606;9.222;2024-02-16T01:16:53;8.20;99.90
12893;DHT22;6514;48.606;9.222;2024-02-16T01:19:21;8.20;99.90
12893;DHT22;6514;48.606;9.222;2024-02-16T01:21:49;8.20;99.90
12893;DHT22;6514;48.606;9.222;2024-02-16T01:24:18;8.20;99.90
12893;DHT22;6514;48.606;9.222;2024-02-16T01:26:45;8.20;99.90
12893;DHT22;6514;48.606;9.222;2024-02-16T01:29:12;8.20;99.90
12893;DHT22;6514;48.606;9.222;2024-02-16T01:31:39;8.20;99.90
12893;DHT22;6514;48.606;9.222;2024-02-16T01:34:06;8.20;99.90
12893;DHT22;6514;48.606;9.222;2024-02-16T01:36:34;8.20;99.90
12893;DHT22;6514;48.606;9.222;2024-02-16T01:39:01;8.20;99.90
12893;DHT22;6514;48.606;9.222;2024-02-16T01:41:28;8.20;99.90
12893;DHT22;6514;48.606;9.222;2024-02-16T01:43:55;8.20;99.90
12893;DHT22;6514;48.606;9.222;2024-02-16T01:46:23;8.20;99.90
12893;DHT22;6514;48.606;9.222;2024-02-16T01:48:50;8.20;99.90
12893;DHT22;6514;48.606;9.222;2024-02-16T01:51:17;8.30;99.90
12893;DHT22;6514;48.606;9.222;2024-02-16T01:53:45;8.30;99.90
12893;DHT22;6514;48.606;9.222;2024-02-16T01:56:12;8.40;99.90
12893;DHT22;6514;48.606;9.222;2024-02-16T01:58:40;8.40;99.90
12893;DHT22;6514;48.606;9.222;2024-02-16T02:01:07;8.40;99.90
12893;DHT22;6514;48.606;9.222;2024-02-16T02:03:34;8.50;99.90
12893;DHT22;6514;48.606;9.222;2024-02-16T02:06:01;8.50;99.90
12893;DHT22;6514;48.606;9.222;2024-02-16T02:08:28;8.50;99.90
12893;DHT22;6514;48.606;9.222;2024-02-16T02:10:57;8.40;99.90
12893;DHT22;6514;48.606;9.222;2024-02-16T02:13:24;8.40;99.90
12893;DHT22;6514;48.606;9.222;2024-02-16T02:15:51;8.40;99.90
12893;DHT22;6514;48.606;9.222;2024-02-16T02:18:18;8.40;99.90
12893;DHT22;6514;48.606;9.222;2024-02-16T02:20:45;8.40;99.90
12893;DHT22;6514;48.606;9.222;2024-02-16T02:23:13;8.40;99.90
12893;DHT22;6514;48.606;9.222;2024-02-16T02:25:40;8.40;99.90
12893;DHT22;6514;48.606;9.222;2024-02-16T02:28:07;8.30;99.90
12893;DHT22;6514;48.606;9.222;2024-02-16T02:30:34;8.30;99.90
12893;DHT22;6514;48.606;9.222;2024-02-16T02:33:01;8.40;99.90
12893;DHT22;6514;48.606;9.222;2024-02-16T02:35:27;8.40;99.90
12893;DHT22;6514;48.606;9.222;2024-02-16T02:37:54;8.40;99.90
12893;DHT22;6514;48.606;9.222;2024-02-16T02:40:23;8.40;99.90
12893;DHT22;6514;48.606;9.222;2024-02-16T02:42:50;8.40;99.90
12893;DHT22;6514;48.606;9.222;2024-02-16T02:45:16;8.40;99.90
12893;DHT22;6514;48.606;9.222;2024-02-16T02:47:43;8.40;99.90
12893;DHT22;6514;48.606;9.222;2024-02-16T02:50:12;8.40;99.90
12893;DHT22;6514;48.606;9.222;2024-02-16T02:52:39;8.40;99.90
12893;DHT22;6514;48.606;9.222;2024-02-16T02:55:06;8.50;99.90
12893;DHT22;6514;48.606;9.222;2024-02-16T02:57:34;8.50;99.90
12893;DHT22;6514;48.606;9.222;2024-02-16T03:00:06;8.50;99.90
12893;DHT22;6514;48.606;9.222;2024-02-16T03:02:36;8.50;99.90
12893;DHT22;6514;48.606;9.222;2024-02-16T03:05:04;8.50;99.90
12893;DHT22;6514;48.606;9.222;2024-02-16T03:07:31;8.50;99.90
12893;DHT22;6514;48.606;9.222;2024-02-16T03:09:58;8.50;99.90
12893;DHT22;6514;48.606;9.222;2024-02-16T03:12:25;8.50;99.90
12893;DHT22;6514;48.606;9.222;2024-02-16T03:14:55;8.40;99.90
12893;DHT22;6514;48.606;9.222;2024-02-16T03:17:22;8.40;99.90
12893;DHT22;6514;48.606;9.222;2024-02-16T03:19:48;8.40;99.90
12893;DHT22;6514;48.606;9.222;2024-02-16T03:22:15;8.40;99.90
12893;DHT22;6514;48.606;9.222;2024-02-16T03:24:43;8.40;99.90
12893;DHT22;6514;48.606;9.222;2024-02-16T03:27:10;8.30;99.90
12893;DHT22;6514;48.606;9.222;2024-02-16T03:29:37;8.30;99.90
12893;DHT22;6514;48.606;9.222;2024-02-16T03:32:06;8.30;99.90
12893;DHT22;6514;48.606;9.222;2024-02-16T03:34:33;8.30;99.90
12893;DHT22;6514;48.606;9.222;2024-02-16T03:37:00;8.20;99.90
12893;DHT22;6514;48.606;9.222;2024-02-16T03:39:26;8.20;99.90
12893;DHT22;6514;48.606;9.222;2024-02-16T03:41:53;8.20;99.90
12893;DHT22;6514;48.606;9.222;2024-02-16T03:44:20;8.20;99.90
12893;DHT22;6514;48.606;9.222;2024-02-16T03:46:48;8.20;99.90
12893;DHT22;6514;48.606;9.222;2024-02-16T03:49:16;8.20;99.90
12893;DHT22;6514;48.606;9.222;2024-02-16T03:51:43;8.30;99.90
12893;DHT22;6514;48.606;9.222;2024-02-16T03:54:10;8.20;99.90
12893;DHT22;6514;48.606;9.222;2024-02-16T03:56:37;8.20;99.90
12893;DHT22;6514;48.606;9.222;2024-02-16T03:59:04;8.20;99.90
12893;DHT22;6514;48.606;9.222;2024-02-16T04:01:32;8.20;99.90
12893;DHT22;6514;48.606;9.222;2024-02-16T04:03:58;8.10;99.90
12893;DHT22;6514;48.606;9.222;2024-02-16T04:06:27;8.10;99.90
12893;DHT22;6514;48.606;9.222;2024-02-16T04:08:54;8.10;99.90
12893;DHT22;6514;48.606;9.222;2024-02-16T04:11:21;8.10;99.90
12893;DHT22;6514;48.606;9.222;2024-02-16T04:13:48;8.10;99.90
12893;DHT22;6514;48.606;9.222;2024-02-16T04:16:15;8.00;99.90
12893;DHT22;6514;48.606;9.222;2024-02-16T04:18:42;8.00;99.90
12893;DHT22;6514;48.606;9.222;2024-02-16T04:21:09;8.00;99.90
12893;DHT22;6514;48.606;9.222;2024-02-16T04:23:38;8.00;99.90
12893;DHT22;6514;48.606;9.222;2024-02-16T04:26:05;8.00;99.90
12893;DHT22;6514;48.606;9.222;2024-02-16T04:28:32;8.00;99.90
12893;DHT22;6514;48.606;9.222;2024-02-16T04:30:59;7.90;99.90
12893;DHT22;6514;48.606;9.222;2024-02-16T04:33:26;7.90;99.90
12893;DHT22;6514;48.606;9.222;2024-02-16T04:35:53;7.80;99.90
12893;DHT22;6514;48.606;9.222;2024-02-16T04:38:20;7.90;99.90
12893;DHT22;6514;48.606;9.222;2024-02-16T04:40:48;7.90;99.90
12893;DHT22;6514;48.606;9.222;2024-02-16T04:43:15;7.90;99.90
12893;DHT22;6514;48.606;9.222;2024-02-16T04:45:43;7.90;99.90
12893;DHT22;6514;48.606;9.222;2024-02-16T04:48:10;7.80;99.90
12893;DHT22;6514;48.606;9.222;2024-02-16T04:50:38;7.80;99.90
12893;DHT22;6514;48.606;9.222;2024-02-16T04:53:05;7.90;99.90
12893;DHT22;6514;48.606;9.222;2024-02-16T04:55:32;7.90;99.90
12893;DHT22;6514;48.606;9.222;2024-02-16T04:58:00;7.90;99.90
12893;DHT22;6514;48.606;9.222;2024-02-16T05:00:30;8.00;99.90
12893;DHT22;6514;48.606;9.222;2024-02-16T05:02:57;8.00;99.90
12893;DHT22;6514;48.606;9.222;2024-02-16T05:05:24;8.10;99.90
12893;DHT22;6514;48.606;9.222;2024-02-16T05:07:51;8.00;99.90
12893;DHT22;6514;48.606;9.222;2024-02-16T05:10:18;8.10;99.90
12893;DHT22;6514;48.606;9.222;2024-02-16T05:12:46;8.10;99.90
12893;DHT22;6514;48.606;9.222;2024-02-16T05:15:14;8.10;99.90
12893;DHT22;6514;48.606;9.222;2024-02-16T05:17:47;8.10;99.90
12893;DHT22;6514;48.606;9.222;2024-02-16T05:20:14;8.10;99.90
12893;DHT22;6514;48.606;9.222;2024-02-16T05:22:42;8.10;99.90
12893;DHT22;6514;48.606;9.222;2024-02-16T05:25:11;8.10;99.90
12893;DHT22;6514;48.606;9.222;2024-02-16T05:27:38;8.10;99.90
12893;DHT22;6514;48.606;9.222;2024-02-16T05:30:06;8.20;99.90
12893;DHT22;6514;48.606;9.222;2024-02-16T05:32:39;8.20;99.90
12893;DHT22;6514;48.606;9.222;2024-02-16T05:35:07;8.20;99.90
12893;DHT22;6514;48.606;9.222;2024-02-16T05:37:38;8.30;99.90
12893;DHT22;6514;48.606;9.222;2024-02-16T05:40:08;8.30;99.90
12893;DHT22;6514;48.606;9.222;2024-02-16T05:42:46;8.30;99.90
12893;DHT22;6514;48.606;9.222;2024-02-16T05:45:13;8.30;99.90
12893;DHT22;6514;48.606;9.222;2024-02-16T05:47:41;8.40;99.90
12893;DHT22;6514;48.606;9.222;2024-02-16T05:50:09;8.40;99.90
12893;DHT22;6514;48.606;9.222;2024-02-16T05:52:37;8.30;99.90
12893;DHT22;6514;48.606;9.222;2024-02-16T05:55:05;8.30;99.90
12893;DHT22;6514;48.606;9.222;2024-02-16T05:57:32;8.20;99.90
12893;DHT22;6514;48.606;9.222;2024-02-16T06:00:00;8.20;99.90
12893;DHT22;6514;48.606;9.222;2024-02-16T06:02:29;8.20;99.90
12893;DHT22;6514;48.606;9.222;2024-02-16T06:04:58;8.30;99.90
12893;DHT22;6514;48.606;9.222;2024-02-16T06:07:25;8.30;99.90
12893;DHT22;6514;48.606;9.222;2024-02-16T06:09:52;8.30;99.90
12893;DHT22;6514;48.606;9.222;2024-02-16T06:12:20;8.30;99.90
12893;DHT22;6514;48.606;9.222;2024-02-16T06:14:47;8.20;99.90
12893;DHT22;6514;48.606;9.222;2024-02-16T06:17:15;8.20;99.90
12893;DHT22;6514;48.606;9.222;2024-02-16T06:19:42;8.10;99.90
12893;DHT22;6514;48.606;9.222;2024-02-16T06:22:10;8.10;99.90
12893;DHT22;6514;48.606;9.222;2024-02-16T06:24:37;8.00;99.90
12893;DHT22;6514;48.606;9.222;2024-02-16T06:27:04;8.00;99.90
12893;DHT22;6514;48.606;9.222;2024-02-16T06:29:33;8.00;99.90
12893;DHT22;6514;48.606;9.222;2024-02-16T06:32:00;8.00;99.90
12893;DHT22;6514;48.606;9.222;2024-02-16T06:34:29;8.00;99.90
12893;DHT22;6514;48.606;9.222;2024-02-16T06:36:56;7.90;99.90
12893;DHT22;6514;48.606;9.222;2024-02-16T06:39:24;7.90;99.90
12893;DHT22;6514;48.606;9.222;2024-02-16T06:41:51;7.90;99.90
12893;DHT22;6514;48.606;9.222;2024-02-16T06:44:18;7.90;99.90
12893;DHT22;6514;48.606;9.222;2024-02-16T06:46:45;8.00;99.90
12893;DHT22;6514;48.606;9.222;2024-02-16T06:49:11;8.10;99.90
12893;DHT22;6514;48.606;9.222;2024-02-16T06:51:38;8.10;99.90
12893;DHT22;6514;48.606;9.222;2024-02-16T06:54:05;8.10;99.90
12893;DHT22;6514;48.606;9.222;2024-02-16T06:56:34;8.10;99.90
12893;DHT22;6514;48.606;9.222;2024-02-16T06:59:01;8.20;99.90
12893;DHT22;6514;48.606;9.222;2024-02-16T07:01:28;8.20;99.90
12893;DHT22;6514;48.606;9.222;2024-02-16T07:03:55;8.20;99.90
12893;DHT22;6514;48.606;9.222;2024-02-16T07:06:22;8.20;99.90
12893;DHT22;6514;48.606;9.222;2024-02-16T07:08:49;8.20;99.90
12893;DHT22;6514;48.606;9.222;2024-02-16T07:11:16;8.30;99.90
12893;DHT22;6514;48.606;9.222;2024-02-16T07:13:45;8.40;99.90
12893;DHT22;6514;48.606;9.222;2024-02-16T07:16:12;8.40;99.90
12893;DHT22;6514;48.606;9.222;2024-02-16T07:18:39;8.50;99.90
12893;DHT22;6514;48.606;9.222;2024-02-16T07:21:07;8.50;99.90
12893;DHT22;6514;48.606;9.222;2024-02-16T07:23:35;8.60;99.90
12893;DHT22;6514;48.606;9.222;2024-02-16T07:26:01;8.60;99.90
12893;DHT22;6514;48.606;9.222;2024-02-16T07:28:28;8.80;99.90
12893;DHT22;6514;48.606;9.222;2024-02-16T07:30:57;9.00;99.90
12893;DHT22;6514;48.606;9.222;2024-02-16T07:33:24;9.10;99.90
12893;DHT22;6514;48.606;9.222;2024-02-16T07:35:53;9.30;99.90
12893;DHT22;6514;48.606;9.222;2024-02-16T07:38:21;9.50;99.90
12893;DHT22;6514;48.606;9.222;2024-02-16T07:40:48;9.70;99.90
12893;DHT22;6514;48.606;9.222;2024-02-16T07:43:16;9.80;99.90
12893;DHT22;6514;48.606;9.222;2024-02-16T07:45:43;9.90;99.90
12893;DHT22;6514;48.606;9.222;2024-02-16T07:48:11;9.90;99.90
12893;DHT22;6514;48.606;9.222;2024-02-16T07:50:38;9.90;99.90
12893;DHT22;6514;48.606;9.222;2024-02-16T07:53:06;10.00;99.90
12893;DHT22;6514;48.606;9.222;2024-02-16T07:55:35;10.10;99.90
12893;DHT22;6514;48.606;9.222;2024-02-16T07:58:02;10.30;99.90
12893;DHT22;6514;48.606;9.222;2024-02-16T08:00:29;10.60;99.90
12893;DHT22;6514;48.606;9.222;2024-02-16T08:02:57;10.90;99.90
12893;DHT22;6514;48.606;9.222;2024-02-16T08:05:26;11.20;99.90
12893;DHT22;6514;48.606;9.222;2024-02-16T08:07:53;11.50;99.90
12893;DHT22;6514;48.606;9.222;2024-02-16T08:10:21;11.50;99.90
12893;DHT22;6514;48.606;9.222;2024-02-16T08:12:48;11.50;99.90
12893;DHT22;6514;48.606;9.222;2024-02-16T08:15:15;11.60;99.90
12893;DHT22;6514;48.606;9.222;2024-02-16T08:17:48;11.70;99.90
12893;DHT22;6514;48.606;9.222;2024-02-16T08:20:15;11.90;99.90
12893;DHT22;6514;48.606;9.222;2024-02-16T08:22:44;12.00;99.90
12893;DHT22;6514;48.606;9.222;2024-02-16T08:25:10;12.20;99.90
12893;DHT22;6514;48.606;9.222;2024-02-16T08:27:37;12.40;99.90
12893;DHT22;6514;48.606;9.222;2024-02-16T08:30:05;12.50;99.90
12893;DHT22;6514;48.606;9.222;2024-02-16T08:32:34;12.60;99.90
12893;DHT22;6514;48.606;9.222;2024-02-16T08:35:01;12.90;99.90
12893;DHT22;6514;48.606;9.222;2024-02-16T08:37:28;13.30;99.90
12893;DHT22;6514;48.606;9.222;2024-02-16T08:39:57;13.60;99.90
12893;DHT22;6514;48.606;9.222;2024-02-16T08:42:24;13.90;99.90
12893;DHT22;6514;48.606;9.222;2024-02-16T08:44:51;14.20;99.90
12893;DHT22;6514;48.606;9.222;2024-02-16T08:47:18;14.50;99.90
12893;DHT22;6514;48.606;9.222;2024-02-16T08:49:45;14.90;99.90
12893;DHT22;6514;48.606;9.222;2024-02-16T08:52:11;15.20;99.90
12893;DHT22;6514;48.606;9.222;2024-02-16T08:54:39;15.40;99.90
12893;DHT22;6514;48.606;9.222;2024-02-16T08:57:08;15.50;99.90
12893;DHT22;6514;48.606;9.222;2024-02-16T08:59:35;15.50;99.90
12893;DHT22;6514;48.606;9.222;2024-02-16T09:02:02;15.40;99.90
12893;DHT22;6514;48.606;9.222;2024-02-16T09:04:30;15.30;99.90
12893;DHT22;6514;48.606;9.222;2024-02-16T09:06:56;15.20;99.90
12893;DHT22;6514;48.606;9.222;2024-02-16T09:09:23;15.20;99.90
12893;DHT22;6514;48.606;9.222;2024-02-16T09:11:51;15.50;99.90
12893;DHT22;6514;48.606;9.222;2024-02-16T09:14:20;15.70;99.90
12893;DHT22;6514;48.606;9.222;2024-02-16T09:16:48;16.10;99.90
12893;DHT22;6514;48.606;9.222;2024-02-16T09:19:17;16.20;99.90
12893;DHT22;6514;48.606;9.222;2024-02-16T09:21:45;16.50;99.90
12893;DHT22;6514;48.606;9.222;2024-02-16T09:24:12;16.80;99.90
12893;DHT22;6514;48.606;9.222;2024-02-16T09:26:43;17.10;99.90
12893;DHT22;6514;48.606;9.222;2024-02-16T09:29:11;17.20;99.90
12893;DHT22;6514;48.606;9.222;2024-02-16T09:31:40;17.50;99.90
12893;DHT22;6514;48.606;9.222;2024-02-16T09:34:07;17.90;99.90
12893;DHT22;6514;48.606;9.222;2024-02-16T09:36:34;18.20;99.90
12893;DHT22;6514;48.606;9.222;2024-02-16T09:39:02;18.30;99.90
12893;DHT22;6514;48.606;9.222;2024-02-16T09:41:28;18.30;99.90
12893;DHT22;6514;48.606;9.222;2024-02-16T09:43:56;18.50;99.90
12893;DHT22;6514;48.606;9.222;2024-02-16T09:46:23;18.70;99.90
12893;DHT22;6514;48.606;9.222;2024-02-16T09:48:54;18.90;99.90
12893;DHT22;6514;48.606;9.222;2024-02-16T09:51:22;19.10;99.90
12893;DHT22;6514;48.606;9.222;2024-02-16T09:53:50;19.20;99.90
12893;DHT22;6514;48.606;9.222;2024-02-16T09:56:19;19.30;99.90
12893;DHT22;6514;48.606;9.222;2024-02-16T09:58:46;19.40;99.90
12893;DHT22;6514;48.606;9.222;2024-02-16T10:01:17;19.40;99.90
12893;DHT22;6514;48.606;9.222;2024-02-16T10:03:45;19.60;99.90
12893;DHT22;6514;48.606;9.222;2024-02-16T10:06:14;20.00;99.90
12893;DHT22;6514;48.606;9.222;2024-02-16T10:08:49;20.30;99.90
12893;DHT22;6514;48.606;9.222;2024-02-16T10:11:16;20.30;99.90
12893;DHT22;6514;48.606;9.222;2024-02-16T10:13:54;20.20;99.90
12893;DHT22;6514;48.606;9.222;2024-02-16T10:16:22;19.90;99.90
12893;DHT22;6514;48.606;9.222;2024-02-16T10:18:49;19.80;99.90
12893;DHT22;6514;48.606;9.222;2024-02-16T10:21:26;19.60;99.90
12893;DHT22;6514;48.606;9.222;2024-02-16T10:24:00;19.20;99.90
12893;DHT22;6514;48.606;9.222;2024-02-16T10:26:30;18.80;99.90
12893;DHT22;6514;48.606;9.222;2024-02-16T10:28:57;18.40;99.90
12893;DHT22;6514;48.606;9.222;2024-02-16T10:31:25;18.20;99.90
12893;DHT22;6514;48.606;9.222;2024-02-16T10:33:57;17.90;99.90
12893;DHT22;6514;48.606;9.222;2024-02-16T10:36:26;17.70;99.90
12893;DHT22;6514;48.606;9.222;2024-02-16T10:38:55;17.40;99.90
12893;DHT22;6514;48.606;9.222;2024-02-16T10:41:26;17.30;99.90
12893;DHT22;6514;48.606;9.222;2024-02-16T10:43:54;17.20;99.90
12893;DHT22;6514;48.606;9.222;2024-02-16T10:46:22;17.20;99.90
12893;DHT22;6514;48.606;9.222;2024-02-16T10:48:49;17.20;99.90
12893;DHT22;6514;48.606;9.222;2024-02-16T10:51:19;17.30;99.90
12893;DHT22;6514;48.606;9.222;2024-02-16T10:53:52;17.30;99.90
12893;DHT22;6514;48.606;9.222;2024-02-16T10:56:27;17.50;99.90
12893;DHT22;6514;48.606;9.222;2024-02-16T10:59:00;17.60;99.90
12893;DHT22;6514;48.606;9.222;2024-02-16T11:01:28;17.70;99.90
12893;DHT22;6514;48.606;9.222;2024-02-16T11:04:01;17.80;99.90
12893;DHT22;6514;48.606;9.222;2024-02-16T11:06:29;17.90;99.90
12893;DHT22;6514;48.606;9.222;2024-02-16T11:09:03;18.00;99.90
12893;DHT22;6514;48.606;9.222;2024-02-16T11:11:36;17.90;99.90
12893;DHT22;6514;48.606;9.222;2024-02-16T11:14:03;18.10;99.90
12893;DHT22;6514;48.606;9.222;2024-02-16T11:16:43;18.30;99.90
12893;DHT22;6514;48.606;9.222;2024-02-16T11:19:11;18.50;99.90
12893;DHT22;6514;48.606;9.222;2024-02-16T11:21:55;18.70;99.90
12893;DHT22;6514;48.606;9.222;2024-02-16T11:24:30;19.00;99.90
12893;DHT22;6514;48.606;9.222;2024-02-16T11:26:57;19.30;99.90
12893;DHT22;6514;48.606;9.222;2024-02-16T11:29:25;19.60;99.90
12893;DHT22;6514;48.606;9.222;2024-02-16T11:31:53;19.90;99.90
12893;DHT22;6514;48.606;9.222;2024-02-16T11:34:23;20.30;99.90
12893;DHT22;6514;48.606;9.222;2024-02-16T11:36:52;20.20;99.90
12893;DHT22;6514;48.606;9.222;2024-02-16T11:39:20;20.10;99.90
12893;DHT22;6514;48.606;9.222;2024-02-16T11:41:59;20.20;99.90
12893;DHT22;6514;48.606;9.222;2024-02-16T11:44:27;20.30;99.90
12893;DHT22;6514;48.606;9.222;2024-02-16T11:46:54;20.40;99.90
12893;DHT22;6514;48.606;9.222;2024-02-16T11:49:21;20.40;99.90
12893;DHT22;6514;48.606;9.222;2024-02-16T11:51:48;20.60;99.90
12893;DHT22;6514;48.606;9.222;2024-02-16T11:54:15;20.40;99.90
12893;DHT22;6514;48.606;9.222;2024-02-16T11:56:43;20.30;99.90
12893;DHT22;6514;48.606;9.222;2024-02-16T11:59:13;20.20;99.90
12893;DHT22;6514;48.606;9.222;2024-02-16T12:01:51;20.30;99.90
12893;DHT22;6514;48.606;9.222;2024-02-16T12:04:21;20.50;99.90
12893;DHT22;6514;48.606;9.222;2024-02-16T12:06:49;20.60;99.90
12893;DHT22;6514;48.606;9.222;2024-02-16T12:09:16;20.80;99.90
12893;DHT22;6514;48.606;9.222;2024-02-16T12:11:43;20.80;99.90
12893;DHT22;6514;48.606;9.222;2024-02-16T12:14:16;20.90;99.90
12893;DHT22;6514;48.606;9.222;2024-02-16T12:16:46;21.20;99.90
12893;DHT22;6514;48.606;9.222;2024-02-16T12:19:13;21.00;99.90
12893;DHT22;6514;48.606;9.222;2024-02-16T12:21:40;20.70;99.90
12893;DHT22;6514;48.606;9.222;2024-02-16T12:24:07;20.60;99.90
12893;DHT22;6514;48.606;9.222;2024-02-16T12:26:36;20.30;99.90
12893;DHT22;6514;48.606;9.222;2024-02-16T12:29:07;20.00;99.90
12893;DHT22;6514;48.606;9.222;2024-02-16T12:31:39;19.70;99.90
12893;DHT22;6514;48.606;9.222;2024-02-16T12:34:07;19.30;99.90
12893;DHT22;6514;48.606;9.222;2024-02-16T12:36:34;19.10;99.90
12893;DHT22;6514;48.606;9.222;2024-02-16T12:39:01;18.80;99.90
12893;DHT22;6514;48.606;9.222;2024-02-16T12:41:29;18.70;99.90
12893;DHT22;6514;48.606;9.222;2024-02-16T12:43:56;18.60;99.90
12893;DHT22;6514;48.606;9.222;2024-02-16T12:46:23;18.50;99.90
12893;DHT22;6514;48.606;9.222;2024-02-16T12:48:51;18.40;99.90
12893;DHT22;6514;48.606;9.222;2024-02-16T12:51:19;18.40;99.90
12893;DHT22;6514;48.606;9.222;2024-02-16T12:53:46;18.30;99.90
12893;DHT22;6514;48.606;9.222;2024-02-16T12:56:13;18.30;99.90
12893;DHT22;6514;48.606;9.222;2024-02-16T12:58:39;18.20;99.90
12893;DHT22;6514;48.606;9.222;2024-02-16T13:01:06;18.30;99.90
12893;DHT22;6514;48.606;9.222;2024-02-16T13:03:34;18.40;99.90
12893;DHT22;6514;48.606;9.222;2024-02-16T13:06:03;18.30;99.90
12893;DHT22;6514;48.606;9.222;2024-02-16T13:08:31;18.30;99.90
12893;DHT22;6514;48.606;9.222;2024-02-16T13:10:58;18.40;99.90
12893;DHT22;6514;48.606;9.222;2024-02-16T13:13:25;18.30;99.90
12893;DHT22;6514;48.606;9.222;2024-02-16T13:15:52;18.30;99.90
12893;DHT22;6514;48.606;9.222;2024-02-16T13:18:19;18.20;99.90
12893;DHT22;6514;48.606;9.222;2024-02-16T13:20:46;18.10;99.90
12893;DHT22;6514;48.606;9.222;2024-02-16T13:23:15;18.10;99.90
12893;DHT22;6514;48.606;9.222;2024-02-16T13:25:42;18.10;99.90
12893;DHT22;6514;48.606;9.222;2024-02-16T13:28:09;18.10;99.90
12893;DHT22;6514;48.606;9.222;2024-02-16T13:30:35;18.10;99.90
12893;DHT22;6514;48.606;9.222;2024-02-16T13:33:03;18.00;99.90
12893;DHT22;6514;48.606;9.222;2024-02-16T13:35:30;17.80;99.90
12893;DHT22;6514;48.606;9.222;2024-02-16T13:37:56;17.70;99.90
12893;DHT22;6514;48.606;9.222;2024-02-16T13:40:25;17.60;99.90
12893;DHT22;6514;48.606;9.222;2024-02-16T13:42:52;17.60;99.90
12893;DHT22;6514;48.606;9.222;2024-02-16T13:45:21;17.60;99.90
12893;DHT22;6514;48.606;9.222;2024-02-16T13:47:50;17.70;99.90
12893;DHT22;6514;48.606;9.222;2024-02-16T13:50:17;17.60;99.90
12893;DHT22;6514;48.606;9.222;2024-02-16T13:52:44;17.60;99.90
12893;DHT22;6514;48.606;9.222;2024-02-16T13:55:12;17.50;99.90
12893;DHT22;6514;48.606;9.222;2024-02-16T13:57:41;17.50;99.90
12893;DHT22;6514;48.606;9.222;2024-02-16T14:00:08;17.40;99.90
12893;DHT22;6514;48.606;9.222;2024-02-16T14:02:35;17.30;99.90
12893;DHT22;6514;48.606;9.222;2024-02-16T14:05:03;17.40;99.90
12893;DHT22;6514;48.606;9.222;2024-02-16T14:07:30;17.30;99.90
12893;DHT22;6514;48.606;9.222;2024-02-16T14:09:58;17.40;99.90
12893;DHT22;6514;48.606;9.222;2024-02-16T14:12:25;17.40;99.90
12893;DHT22;6514;48.606;9.222;2024-02-16T14:14:53;17.40;99.90
12893;DHT22;6514;48.606;9.222;2024-02-16T14:17:20;17.40;99.90
12893;DHT22;6514;48.606;9.222;2024-02-16T14:19:47;17.40;99.90
12893;DHT22;6514;48.606;9.222;2024-02-16T14:22:14;17.50;99.90
12893;DHT22;6514;48.606;9.222;2024-02-16T14:24:41;17.50;99.90
12893;DHT22;6514;48.606;9.222;2024-02-16T14:27:08;17.50;99.90
12893;DHT22;6514;48.606;9.222;2024-02-16T14:29:35;17.60;99.90
12893;DHT22;6514;48.606;9.222;2024-02-16T14:32:04;17.50;99.90
12893;DHT22;6514;48.606;9.222;2024-02-16T14:34:31;17.60;99.90
12893;DHT22;6514;48.606;9.222;2024-02-16T14:36:58;17.60;99.90
12893;DHT22;6514;48.606;9.222;2024-02-16T14:39:25;17.50;99.90
12893;DHT22;6514;48.606;9.222;2024-02-16T14:41:52;17.60;99.90
12893;DHT22;6514;48.606;9.222;2024-02-16T14:44:19;17.60;99.90
12893;DHT22;6514;48.606;9.222;2024-02-16T14:46:46;17.60;99.90
12893;DHT22;6514;48.606;9.222;2024-02-16T14:49:14;17.50;99.90
12893;DHT22;6514;48.606;9.222;2024-02-16T14:51:46;17.60;99.90
12893;DHT22;6514;48.606;9.222;2024-02-16T14:54:13;17.60;99.90
12893;DHT22;6514;48.606;9.222;2024-02-16T14:56:40;17.60;99.90
12893;DHT22;6514;48.606;9.222;2024-02-16T14:59:07;17.60;99.90
12893;DHT22;6514;48.606;9.222;2024-02-16T15:01:35;17.40;99.90
12893;DHT22;6514;48.606;9.222;2024-02-16T15:04:03;17.30;99.90
12893;DHT22;6514;48.606;9.222;2024-02-16T15:06:31;17.20;99.90
12893;DHT22;6514;48.606;9.222;2024-02-16T15:09:00;17.00;99.90
12893;DHT22;6514;48.606;9.222;2024-02-16T15:11:28;16.90;99.90
12893;DHT22;6514;48.606;9.222;2024-02-16T15:13:55;16.80;99.90
12893;DHT22;6514;48.606;9.222;2024-02-16T15:16:24;16.70;99.90
12893;DHT22;6514;48.606;9.222;2024-02-16T15:18:51;16.50;99.90
12893;DHT22;6514;48.606;9.222;2024-02-16T15:21:19;16.40;99.90
12893;DHT22;6514;48.606;9.222;2024-02-16T15:23:48;16.30;99.90
12893;DHT22;6514;48.606;9.222;2024-02-16T15:26:15;16.20;99.90
12893;DHT22;6514;48.606;9.222;2024-02-16T15:28:42;16.20;99.90
12893;DHT22;6514;48.606;9.222;2024-02-16T15:31:09;16.00;99.90
12893;DHT22;6514;48.606;9.222;2024-02-16T15:33:39;16.00;99.90
12893;DHT22;6514;48.606;9.222;2024-02-16T15:36:07;15.90;99.90
12893;DHT22;6514;48.606;9.222;2024-02-16T15:38:35;15.80;99.90
12893;DHT22;6514;48.606;9.222;2024-02-16T15:41:04;15.80;99.90
12893;DHT22;6514;48.606;9.222;2024-02-16T15:43:30;15.70;99.90
12893;DHT22;6514;48.606;9.222;2024-02-16T15:45:57;15.70;99.90
12893;DHT22;6514;48.606;9.222;2024-02-16T15:48:24;15.70;99.90
12893;DHT22;6514;48.606;9.222;2024-02-16T15:50:52;15.60;99.90
12893;DHT22;6514;48.606;9.222;2024-02-16T15:53:21;15.60;99.90
12893;DHT22;6514;48.606;9.222;2024-02-16T15:56:20;15.50;99.90
12893;DHT22;6514;48.606;9.222;2024-02-16T15:58:49;14.90;99.90